Time;durP1;ratioP1;P1;durP2;ratioP2;P2;SDS_P1;SDS_P2;PMS_P1;PMS_P2;Temp;Humidity;BMP_temperature;BMP_pressure;BME280_temperature;BME280_humidity;BME280_pressure;Samples;Min_cycle;Max_cycle;Signal;HPM_P1;HPM_P2
2023/08/24 05:32:42;;;;;;;;;;;;;;;29.23;52.64;96897.53;4246091;27;10230;-70
2023/08/24 05:34:46;;;;;;;;;;;;;;;29.48;51.91;96891.47;4224349;28;5799;-72
2023/08/24 05:36:49;;;;;;;;;;;;;;;29.68;51.47;96892.84;4230003;28;5649;-72
2023/08/24 05:38:55;;;;;;;;;;;;;;;29.86;51.07;96893.72;4230024;28;5684;-71
2023/08/24 05:41:08;;;;;;;;;;;;;;;30.00;50.68;96891.69;4221622;28;5617;-71
2023/08/24 05:43:11;;;;;;;;;;;;;;;30.10;50.44;96888.69;4225912;28;5692;-72
2023/08/24 05:45:14;;;;;;;;;;;;;;;30.21;49.83;96897.38;4228231;28;5648;-71
2023/08/24 05:47:17;;;;;;;;;;;;;;;30.29;49.78;96898.53;4231350;28;6325;-76
2023/08/24 05:49:21;;;;;;;;;;;;;;;30.35;49.65;96903.53;4231664;28;5699;-72
2023/08/24 05:51:24;;;;;;;;;;;;;;;30.40;49.35;96902.56;4228717;28;5617;-69
2023/08/24 05:53:27;;;;;;;;;;;;;;;30.43;49.06;96900.00;4230360;28;5665;-70
2023/08/24 05:55:30;;;;;;;;;;;;;;;30.47;49.00;96907.53;4231349;28;5813;-69
2023/08/24 05:57:33;;;;;;;;;;;;;;;30.49;48.94;96900.66;4230291;28;5736;-70
2023/08/24 05:59:36;;;;;;;;;;;;;;;30.52;48.56;96897.28;4231175;28;5732;-70
2023/08/24 06:01:41;;;;;;;;;;;;;;;30.55;48.60;96910.28;4230283;28;5830;-69
2023/08/24 06:03:44;;;;;;;;;;;;;;;30.58;48.49;96908.81;4214548;28;5698;-69
2023/08/24 06:05:48;;;;;;;;;;;;;;;30.59;48.43;96905.81;4213346;28;5726;-69
2023/08/24 06:07:51;;;;;;;;;;;;;;;30.64;48.13;96902.94;4214340;28;5623;-69
2023/08/24 06:09:55;;;;;;;;;;;;;;;30.68;48.29;96909.34;4216420;28;5631;-70
2023/08/24 06:11:57;;;;;;;;;;;;;;;30.73;48.09;96907.59;4231576;28;5684;-70
2023/08/24 06:14:00;;;;;;;;;;;;;;;30.75;47.77;96910.81;4231156;28;5609;-69
2023/08/24 06:16:03;;;;;;;;;;;;;;;30.79;47.56;96909.03;4231180;28;5820;-69
2023/08/24 06:18:07;;;;;;;;;;;;;;;30.83;47.75;96908.09;4231177;28;5621;-69
2023/08/24 06:20:10;;;;;;;;;;;;;;;30.86;47.65;96923.03;4231371;28;5708;-70
2023/08/24 06:22:14;;;;;;;;;;;;;;;30.87;47.57;96910.97;4230749;28;5676;-69
2023/08/24 06:24:17;;;;;;;;;;;;;;;30.87;47.37;96908.25;4230819;28;7699;-69
2023/08/24 06:26:20;;;;;;;;;;;;;;;30.90;47.49;96910.31;4231236;28;5638;-69
2023/08/24 06:28:23;;;;;;;;;;;;;;;30.91;47.37;96907.28;4231161;28;5826;-70
2023/08/24 06:30:26;;;;;;;;;;;;;;;30.95;47.21;96910.19;4231257;28;6692;-70
2023/08/24 06:32:29;;;;;;;;;;;;;;;30.97;47.33;96910.66;4226278;28;5845;-70
2023/08/24 06:34:32;;;;;;;;;;;;;;;30.99;47.08;96916.59;4219681;28;5665;-70
2023/08/24 06:36:35;;;;;;;;;;;;;;;31.01;47.21;96917.06;4219541;28;5680;-70
2023/08/24 06:38:39;;;;;;;;;;;;;;;31.02;47.13;96919.47;4219522;28;5058;-70
2023/08/24 06:40:42;;;;;;;;;;;;;;;31.05;47.19;96923.50;4219856;28;5721;-70
2023/08/24 06:42:45;;;;;;;;;;;;;;;31.06;47.17;96919.66;4219522;28;5598;-70
2023/08/24 06:44:49;;;;;;;;;;;;;;;31.07;46.89;96918.53;4219405;28;5732;-70
2023/08/24 06:46:52;;;;;;;;;;;;;;;31.08;46.52;96916.59;4219498;28;5747;-70
2023/08/24 06:48:55;;;;;;;;;;;;;;;31.09;47.05;96912.72;4219552;28;5617;-69
2023/08/24 06:50:58;;;;;;;;;;;;;;;31.10;46.58;96912.41;4219409;28;5923;-70
2023/08/24 06:53:01;;;;;;;;;;;;;;;31.10;46.50;96915.13;4219152;28;5621;-70
2023/08/24 06:55:09;;;;;;;;;;;;;;;31.10;46.75;96915.13;4219332;28;5657;-71
2023/08/24 06:57:12;;;;;;;;;;;;;;;31.11;46.75;96911.28;4219341;28;5616;-70
2023/08/24 06:59:15;;;;;;;;;;;;;;;31.13;46.56;96909.03;4219106;28;5629;-70
2023/08/24 07:01:18;;;;;;;;;;;;;;;31.14;46.48;96910.63;4219190;28;5808;-70
2023/08/24 07:03:20;;;;;;;;;;;;;;;31.14;46.81;96913.34;4219197;28;5688;-70
2023/08/24 07:05:24;;;;;;;;;;;;;;;31.14;46.74;96907.09;4219280;28;5764;-70
2023/08/24 07:07:27;;;;;;;;;;;;;;;31.17;46.91;96914.66;4218920;28;5729;-70
2023/08/24 07:09:30;;;;;;;;;;;;;;;31.17;46.53;96911.94;4219108;28;5747;-69
2023/08/24 07:11:34;;;;;;;;;;;;;;;31.16;46.57;96902.94;4219195;28;5672;-71
2023/08/24 07:13:37;;;;;;;;;;;;;;;31.16;46.79;96913.88;4218928;28;5681;-70
2023/08/24 07:15:40;;;;;;;;;;;;;;;31.15;46.61;96906.81;4202322;28;5643;-70
2023/08/24 07:17:43;;;;;;;;;;;;;;;31.17;46.64;96904.53;4202165;28;5941;-68
2023/08/24 07:19:46;;;;;;;;;;;;;;;31.17;46.70;96899.09;4202152;28;5640;-69
2023/08/24 07:21:49;;;;;;;;;;;;;;;31.18;46.72;96895.22;4201862;28;5612;-70
2023/08/24 07:23:52;;;;;;;;;;;;;;;31.17;46.56;96898.28;4212121;28;5682;-70
2023/08/24 07:25:55;;;;;;;;;;;;;;;31.17;46.37;96890.09;4218241;28;5644;-69
2023/08/24 07:27:59;;;;;;;;;;;;;;;31.17;46.42;96893.63;4217346;28;6351;-69
2023/08/24 07:30:05;;;;;;;;;;;;;;;31.15;46.20;96895.88;4203387;28;6488;-69
2023/08/24 07:32:28;;;;;;;;;;;;;;;31.12;46.50;96888.31;4214285;28;5791;-70
2023/08/24 07:34:31;;;;;;;;;;;;;;;31.12;46.50;96890.25;4217359;28;5672;-70
2023/08/24 07:36:34;;;;;;;;;;;;;;;31.12;46.53;96885.56;4218897;28;5736;-70
2023/08/24 07:38:37;;;;;;;;;;;;;;;31.11;46.35;96883.19;4218540;28;5697;-70
2023/08/24 07:40:40;;;;;;;;;;;;;;;31.13;46.54;96889.91;4218341;28;5731;-70
2023/08/24 07:42:46;;;;;;;;;;;;;;;31.13;46.41;96883.66;4217974;28;5661;-70
2023/08/24 07:44:51;;;;;;;;;;;;;;;31.14;46.37;96883.31;4217525;28;5701;-70
2023/08/24 07:46:55;;;;;;;;;;;;;;;31.15;46.19;96879.50;4218595;28;5685;-70
2023/08/24 07:48:57;;;;;;;;;;;;;;;31.16;46.37;96878.38;4218678;28;5768;-70
2023/08/24 07:51:00;;;;;;;;;;;;;;;31.17;46.31;96876.44;4218189;28;5752;-68
2023/08/24 07:53:02;;;;;;;;;;;;;;;31.15;46.46;96876.75;4218298;28;5797;-68
2023/08/24 07:55:06;;;;;;;;;;;;;;;31.16;46.17;96872.09;4218147;28;7695;-69
2023/08/24 07:57:09;;;;;;;;;;;;;;;31.15;46.18;96876.75;4218481;28;5676;-69
2023/08/24 07:59:12;;;;;;;;;;;;;;;31.13;46.34;96876.25;4218010;28;5661;-69
2023/08/24 08:01:17;;;;;;;;;;;;;;;31.13;46.29;96876.25;4218384;28;5676;-68
2023/08/24 08:03:20;;;;;;;;;;;;;;;31.12;46.05;96874.66;4218282;28;7691;-69
2023/08/24 08:05:23;;;;;;;;;;;;;;;31.12;46.09;96874.66;4218408;28;5763;-70
2023/08/24 08:07:27;;;;;;;;;;;;;;;31.14;45.77;96869.66;4218014;28;5673;-69
2023/08/24 08:09:30;;;;;;;;;;;;;;;31.18;45.84;96867.91;4218164;28;5612;-69
2023/08/24 08:11:34;;;;;;;;;;;;;;;31.20;45.64;96871.16;4218204;28;5612;-69
2023/08/24 08:13:37;;;;;;;;;;;;;;;31.22;45.66;96865.34;4218099;28;6444;-69
2023/08/24 08:15:39;;;;;;;;;;;;;;;31.24;45.75;96869.38;4217914;28;5729;-70
2023/08/24 08:17:43;;;;;;;;;;;;;;;31.24;45.42;96872.09;4218224;28;6366;-69
2023/08/24 08:19:46;;;;;;;;;;;;;;;31.25;45.19;96865.50;4218253;28;5073;-68
2023/08/24 08:21:50;;;;;;;;;;;;;;;31.25;45.23;96868.22;4217819;28;5680;-69
2023/08/24 08:23:53;;;;;;;;;;;;;;;31.25;45.23;96861.97;4217863;28;5740;-69
2023/08/24 08:25:56;;;;;;;;;;;;;;;31.25;44.98;96870.97;4218248;28;5747;-70
2023/08/24 08:28:00;;;;;;;;;;;;;;;31.25;45.32;96868.22;4217707;28;5637;-69
2023/08/24 08:30:04;;;;;;;;;;;;;;;31.25;45.17;96872.91;4217943;28;5725;-70
2023/08/24 08:32:08;;;;;;;;;;;;;;;31.25;44.99;96865.50;4217470;28;5678;-70
2023/08/24 08:34:12;;;;;;;;;;;;;;;31.27;45.18;96860.53;4217858;28;5728;-70
2023/08/24 08:36:15;;;;;;;;;;;;;;;31.28;45.19;96858.63;4217887;28;5105;-70
2023/08/24 08:38:18;;;;;;;;;;;;;;;31.27;45.33;96860.53;4217633;28;5695;-69
2023/08/24 08:40:21;;;;;;;;;;;;;;;31.28;44.93;96861.34;4217775;28;5609;-71
2023/08/24 08:42:24;;;;;;;;;;;;;;;31.31;45.14;96857.16;4217543;28;5609;-70
2023/08/24 08:44:31;;;;;;;;;;;;;;;31.31;45.27;96859.88;4217705;28;5620;-70
2023/08/24 08:46:34;;;;;;;;;;;;;;;31.30;44.80;96859.09;4217708;28;5686;-70
2023/08/24 08:48:38;;;;;;;;;;;;;;;31.29;45.23;96861.00;4217538;28;5692;-70
2023/08/24 08:50:43;;;;;;;;;;;;;;;31.32;44.86;96869.69;4217344;28;5621;-69
2023/08/24 08:52:46;;;;;;;;;;;;;;;31.32;44.94;96862.28;4217588;28;5742;-70
2023/08/24 08:54:49;;;;;;;;;;;;;;;31.32;44.65;96862.28;4217567;28;5843;-70
2023/08/24 08:56:52;;;;;;;;;;;;;;;31.33;44.77;96865.81;4217251;28;6406;-70
2023/08/24 08:58:57;;;;;;;;;;;;;;;31.32;44.88;96867.75;4217427;28;5743;-70
2023/08/24 09:01:03;;;;;;;;;;;;;;;31.34;44.83;96867.41;4217668;28;5668;-71
2023/08/24 09:03:07;;;;;;;;;;;;;;;31.36;45.11;96865.16;4217598;28;5668;-70
2023/08/24 09:05:11;;;;;;;;;;;;;;;31.35;44.71;96866.28;4217557;28;5616;-70
2023/08/24 09:07:16;;;;;;;;;;;;;;;31.36;45.17;96857.75;4217281;28;5617;-69
2023/08/24 09:09:19;;;;;;;;;;;;;;;31.35;44.71;96860.81;4217255;28;5669;-70
2023/08/24 09:11:23;;;;;;;;;;;;;;;31.35;44.86;96850.69;4217230;28;5751;-70
2023/08/24 09:13:26;;;;;;;;;;;;;;;31.37;44.72;96853.09;4217392;28;5736;-70
2023/08/24 09:15:36;;;;;;;;;;;;;;;31.40;44.51;96857.94;4217303;28;5715;-70
2023/08/24 09:17:43;;;;;;;;;;;;;;;31.40;44.71;96842.34;4217242;28;5656;-70
2023/08/24 09:19:46;;;;;;;;;;;;;;;31.40;44.14;96847.81;4217432;28;5696;-69
2023/08/24 09:21:49;;;;;;;;;;;;;;;31.39;43.84;96842.69;4217303;28;5673;-70
2023/08/24 09:23:55;;;;;;;;;;;;;;;31.37;44.05;96839.44;4217170;28;5612;-70
2023/08/24 09:25:58;;;;;;;;;;;;;;;31.39;43.51;96837.22;4217390;28;6294;-70
2023/08/24 09:28:03;;;;;;;;;;;;;;;31.40;43.37;96836.09;4217423;28;5756;-70
2023/08/24 09:30:11;;;;;;;;;;;;;;;31.44;43.45;96842.50;4217460;28;5673;-70
2023/08/24 09:32:14;;;;;;;;;;;;;;;31.45;43.21;96838.63;4216796;28;5621;-70
2023/08/24 09:34:21;;;;;;;;;;;;;;;31.44;43.30;96831.56;4217325;28;5676;-70
2023/08/24 09:36:24;;;;;;;;;;;;;;;31.45;43.04;96833.16;4217287;28;5673;-71
2023/08/24 09:38:27;;;;;;;;;;;;;;;31.45;43.01;96833.16;4217218;28;5669;-70
2023/08/24 09:40:31;;;;;;;;;;;;;;;31.48;42.49;96836.03;4217283;28;5747;-70
2023/08/24 09:42:38;;;;;;;;;;;;;;;31.49;42.44;96823.19;4217026;28;5817;-70
2023/08/24 09:44:45;;;;;;;;;;;;;;;31.52;42.32;96828.00;4200464;28;5616;-70
2023/08/24 09:46:48;;;;;;;;;;;;;;;31.53;42.50;96819.47;4209845;28;5685;-71
2023/08/24 09:48:56;;;;;;;;;;;;;;;31.55;42.22;96817.22;4217183;28;5601;-70
2023/08/24 09:51:03;;;;;;;;;;;;;;;31.57;42.27;96820.41;4217014;28;5707;-71
2023/08/24 09:53:09;;;;;;;;;;;;;;;31.55;42.14;96809.00;4216834;28;7764;-70
2023/08/24 09:55:14;;;;;;;;;;;;;;;31.56;42.21;96809.81;4217200;28;5641;-71
2023/08/24 09:57:20;;;;;;;;;;;;;;;31.58;42.39;96816.53;4217140;28;5616;-70
2023/08/24 09:59:24;;;;;;;;;;;;;;;31.62;42.02;96813.97;4217236;28;5640;-70
2023/08/24 10:01:28;;;;;;;;;;;;;;;31.65;42.00;96807.84;4217060;28;5661;-71
2023/08/24 10:03:33;;;;;;;;;;;;;;;31.67;42.03;96804.78;4216817;28;5776;-70
2023/08/24 10:05:38;;;;;;;;;;;;;;;31.65;41.51;96802.38;4217285;28;5672;-70
2023/08/24 10:08:01;;;;;;;;;;;;;;;31.68;41.49;96801.72;4217878;28;5903;-70
2023/08/24 10:10:06;;;;;;;;;;;;;;;31.69;41.69;96800.59;4220109;28;5689;-68
2023/08/24 10:12:10;;;;;;;;;;;;;;;31.72;41.32;96794.47;4220211;28;5676;-69
2023/08/24 10:14:20;;;;;;;;;;;;;;;31.75;41.33;96798.50;4220003;28;5728;-69
2023/08/24 10:16:25;;;;;;;;;;;;;;;31.77;41.42;96786.13;4219940;28;5665;-71
2023/08/24 10:18:28;;;;;;;;;;;;;;;31.78;41.22;96787.72;4219871;28;5735;-69
2023/08/24 10:20:32;;;;;;;;;;;;;;;31.83;41.27;96778.53;4218641;28;5700;-70
2023/08/24 10:22:36;;;;;;;;;;;;;;;31.85;41.03;96774.34;4219870;28;5668;-69
2023/08/24 10:24:43;;;;;;;;;;;;;;;31.85;40.44;96770.81;4219944;28;5805;-71
2023/08/24 10:26:46;;;;;;;;;;;;;;;31.83;40.81;96771.13;4220030;28;5632;-71
2023/08/24 10:28:51;;;;;;;;;;;;;;;31.84;40.28;96759.06;4219889;28;5717;-69
2023/08/24 10:30:59;;;;;;;;;;;;;;;31.87;40.36;96757.59;4219540;28;5620;-69
2023/08/24 10:33:02;;;;;;;;;;;;;;;31.89;40.38;96755.34;4219870;28;5681;-70
2023/08/24 10:35:06;;;;;;;;;;;;;;;31.89;40.39;96751.81;4219755;28;5617;-70
2023/08/24 10:37:10;;;;;;;;;;;;;;;31.91;40.16;96749.53;4219728;28;5675;-69
2023/08/24 10:39:13;;;;;;;;;;;;;;;31.91;39.93;96744.88;4219892;28;5678;-70
2023/08/24 10:41:16;;;;;;;;;;;;;;;31.96;40.30;96746.63;4219695;28;5673;-70
2023/08/24 10:43:20;;;;;;;;;;;;;;;31.98;40.15;96747.06;4219606;28;5698;-70
2023/08/24 10:45:24;;;;;;;;;;;;;;;31.98;39.25;96741.63;4219337;28;5748;-70
2023/08/24 10:47:28;;;;;;;;;;;;;;;31.98;39.35;96742.41;4219457;28;5733;-69
2023/08/24 10:49:32;;;;;;;;;;;;;;;31.98;39.81;96742.41;4219582;28;5656;-70
2023/08/24 10:51:44;;;;;;;;;;;;;;;32.01;39.66;96735.47;4185225;28;5705;-70
2023/08/24 10:53:48;;;;;;;;;;;;;;;32.01;39.41;96730.00;4203501;28;5651;-71
2023/08/24 10:56:11;;;;;;;;;;;;;;;32.02;39.89;96735.13;4219469;28;5665;-70
2023/08/24 10:58:17;;;;;;;;;;;;;;;32.06;39.55;96729.81;4219239;28;5694;-70
2023/08/24 11:00:22;;;;;;;;;;;;;;;32.08;39.69;96725.59;4219439;28;5697;-70
2023/08/24 11:02:26;;;;;;;;;;;;;;;32.12;39.42;96726.53;4219369;28;6345;-71
2023/08/24 11:04:30;;;;;;;;;;;;;;;32.15;39.39;96725.06;4219027;28;5756;-70
2023/08/24 11:06:33;;;;;;;;;;;;;;;32.16;39.16;96726.66;4219165;28;5700;-71
2023/08/24 11:08:47;;;;;;;;;;;;;;;32.18;38.68;96721.69;4218922;28;5672;-70
2023/08/24 11:10:50;;;;;;;;;;;;;;;32.21;39.11;96726.47;4219040;28;5689;-70
2023/08/24 11:13:13;;;;;;;;;;;;;;;32.25;38.74;96718.38;4218978;28;5792;-70
2023/08/24 11:15:29;;;;;;;;;;;;;;;32.27;38.63;96714.19;4219199;28;5661;-70
2023/08/24 11:17:33;;;;;;;;;;;;;;;32.28;39.07;96717.72;4219191;28;6375;-70
2023/08/24 11:19:38;;;;;;;;;;;;;;;32.28;39.00;96721.28;4218873;28;5640;-71
2023/08/24 11:21:40;;;;;;;;;;;;;;;32.30;38.52;96716.28;4218705;28;5620;-70
2023/08/24 11:23:45;;;;;;;;;;;;;;;32.32;38.90;96719.47;4218935;28;5712;-70
2023/08/24 11:25:49;;;;;;;;;;;;;;;32.31;38.92;96708.88;4218970;28;5824;-69
2023/08/24 11:27:52;;;;;;;;;;;;;;;32.33;38.86;96712.06;4219162;28;5609;-69
2023/08/24 11:30:01;;;;;;;;;;;;;;;32.35;38.78;96718.00;4218751;28;5616;-68
2023/08/24 11:32:05;;;;;;;;;;;;;;;32.36;39.34;96712.19;4218547;28;5621;-73
2023/08/24 11:34:08;;;;;;;;;;;;;;;32.37;38.97;96708.31;4218812;28;5756;-73
2023/08/24 11:36:12;;;;;;;;;;;;;;;32.39;38.76;96707.97;4218845;28;5657;-75
2023/08/24 11:38:15;;;;;;;;;;;;;;;32.39;38.96;96719.75;4218361;28;5656;-71
2023/08/24 11:40:19;;;;;;;;;;;;;;;32.40;39.21;96709.63;4218899;28;5684;-75
2023/08/24 11:42:22;;;;;;;;;;;;;;;32.41;38.73;96709.28;4218594;28;5601;-74
2023/08/24 11:44:25;;;;;;;;;;;;;;;32.41;38.79;96709.28;4218334;28;5752;-73
2023/08/24 11:46:31;;;;;;;;;;;;;;;32.42;38.23;96712.81;4218688;28;5685;-77
2023/08/24 11:48:36;;;;;;;;;;;;;;;32.42;38.08;96702.66;4218667;28;5664;-73
2023/08/24 11:50:39;;;;;;;;;;;;;;;32.44;38.04;96696.84;4218296;28;6356;-75
2023/08/24 11:52:44;;;;;;;;;;;;;;;32.44;38.42;96694.13;4201558;28;7516;-76
2023/08/24 11:54:47;;;;;;;;;;;;;;;32.47;37.85;96695.38;4202588;28;5660;-77
2023/08/24 11:56:50;;;;;;;;;;;;;;;32.48;37.99;96688.75;4218543;28;5608;-76
2023/08/24 11:58:53;;;;;;;;;;;;;;;32.50;37.89;96691.94;4218382;28;5088;-75
2023/08/24 12:00:56;;;;;;;;;;;;;;;32.52;38.39;96689.69;4218442;28;5803;-77
2023/08/24 12:02:59;;;;;;;;;;;;;;;32.54;38.10;96681.94;4218218;28;5704;-77
2023/08/24 12:05:06;;;;;;;;;;;;;;;32.57;37.48;96679.31;4218444;28;5621;-76
2023/08/24 12:07:11;;;;;;;;;;;;;;;32.59;37.01;96678.97;4218320;28;5667;-75
2023/08/24 12:09:16;;;;;;;;;;;;;;;32.62;37.40;96678.31;4218003;28;5759;-74
2023/08/24 12:11:19;;;;;;;;;;;;;;;32.63;37.20;96679.94;4218422;28;5685;-75
2023/08/24 12:13:23;;;;;;;;;;;;;;;32.65;37.25;96678.44;4218126;28;5613;-71
2023/08/24 12:15:29;;;;;;;;;;;;;;;32.64;37.00;96676.06;4218132;28;5739;-76
2023/08/24 12:17:43;;;;;;;;;;;;;;;32.71;36.79;96668.06;4218313;28;5620;-76
2023/08/24 12:19:58;;;;;;;;;;;;;;;32.72;36.91;96669.66;4216945;28;5670;-71
2023/08/24 12:22:01;;;;;;;;;;;;;;;32.73;36.55;96663.03;4217716;28;5613;-74
2023/08/24 12:24:05;;;;;;;;;;;;;;;32.76;36.56;96656.91;4217643;28;5665;-73
2023/08/24 12:26:18;;;;;;;;;;;;;;;32.76;36.31;96656.91;4218084;28;5081;-76
2023/08/24 12:28:21;;;;;;;;;;;;;;;32.79;36.16;96649.94;4218032;28;5665;-72
2023/08/24 12:30:24;;;;;;;;;;;;;;;32.81;36.27;96653.94;4217400;28;5764;-71
2023/08/24 12:32:30;;;;;;;;;;;;;;;32.83;36.48;96656.38;4217503;28;5740;-72
2023/08/24 12:34:33;;;;;;;;;;;;;;;32.85;36.04;96659.59;4217767;28;5732;-71
2023/08/24 12:36:37;;;;;;;;;;;;;;;32.87;36.18;96655.38;4218033;28;5713;-73
2023/08/24 12:38:42;;;;;;;;;;;;;;;32.86;36.19;96651.03;4217468;28;5815;-72
2023/08/24 12:40:45;;;;;;;;;;;;;;;32.87;36.01;96641.69;4218057;28;5625;-72
2023/08/24 12:42:49;;;;;;;;;;;;;;;32.88;35.92;96635.06;4217691;28;5676;-72
2023/08/24 12:44:52;;;;;;;;;;;;;;;32.91;36.04;96639.03;4217607;28;5759;-72
2023/08/24 12:46:55;;;;;;;;;;;;;;;32.92;36.34;96629.69;4217619;28;5669;-71
2023/08/24 12:48:58;;;;;;;;;;;;;;;32.93;36.24;96618.38;4217642;28;5677;-72
2023/08/24 12:51:01;;;;;;;;;;;;;;;32.95;35.88;96621.59;4217531;28;5686;-71
2023/08/24 12:53:06;;;;;;;;;;;;;;;32.97;35.71;96615.78;4217360;28;5621;-71
2023/08/24 12:55:09;;;;;;;;;;;;;;;32.98;36.01;96615.44;4217804;28;5755;-71
2023/08/24 12:57:12;;;;;;;;;;;;;;;32.99;35.70;96603.34;4217290;28;5613;-72
2023/08/24 12:59:17;;;;;;;;;;;;;;;33.00;35.75;96594.00;4217324;28;5673;-71
2023/08/24 13:01:20;;;;;;;;;;;;;;;33.02;35.78;96590.91;4217543;28;5737;-71
2023/08/24 13:03:23;;;;;;;;;;;;;;;33.04;36.07;96587.81;4217576;28;5711;-71
2023/08/24 13:05:26;;;;;;;;;;;;;;;33.05;36.10;96581.19;4217470;28;5669;-72
2023/08/24 13:07:29;;;;;;;;;;;;;;;33.07;35.75;96578.91;4217163;28;5909;-72
2023/08/24 13:09:31;;;;;;;;;;;;;;;33.06;36.11;96569.91;4217476;28;7793;-72
2023/08/24 13:11:34;;;;;;;;;;;;;;;33.10;36.09;96568.09;4217437;28;5622;-71
2023/08/24 13:13:37;;;;;;;;;;;;;;;33.15;35.91;96565.09;4217420;28;5661;-72
2023/08/24 13:15:41;;;;;;;;;;;;;;;33.20;35.79;96572.28;4217420;28;5699;-71
2023/08/24 13:17:44;;;;;;;;;;;;;;;33.23;35.92;96555.16;4217535;28;5658;-70
2023/08/24 13:19:48;;;;;;;;;;;;;;;33.26;35.65;96555.25;4217314;28;5684;-71
2023/08/24 13:21:51;;;;;;;;;;;;;;;33.26;36.08;96554.47;4217081;28;5629;-70
2023/08/24 13:23:54;;;;;;;;;;;;;;;33.24;35.95;96549.34;4217115;28;5664;-70
2023/08/24 13:25:59;;;;;;;;;;;;;;;33.25;35.35;96542.72;4217165;28;5617;-70
2023/08/24 13:28:02;;;;;;;;;;;;;;;33.26;35.35;96546.25;4217182;28;5632;-71
2023/08/24 13:30:06;;;;;;;;;;;;;;;33.25;35.67;96531.75;4217329;28;5087;-70
2023/08/24 13:32:10;;;;;;;;;;;;;;;33.29;35.79;96529.13;4216884;28;5779;-70
2023/08/24 13:34:14;;;;;;;;;;;;;;;33.32;35.13;96525.69;4217260;28;5724;-70
2023/08/24 13:36:17;;;;;;;;;;;;;;;33.36;34.96;96521.16;4217104;28;5747;-71
2023/08/24 13:38:20;;;;;;;;;;;;;;;33.39;34.84;96520.44;4216899;28;5676;-70
2023/08/24 13:40:23;;;;;;;;;;;;;;;33.39;35.47;96520.44;4217124;28;5731;-70
2023/08/24 13:42:26;;;;;;;;;;;;;;;33.40;34.79;96513.03;4217382;28;5728;-69
2023/08/24 13:44:28;;;;;;;;;;;;;;;33.42;34.71;96508.81;4220321;28;5693;-71
2023/08/24 13:46:31;;;;;;;;;;;;;;;33.44;34.75;96498.28;4220479;28;5345;-70
2023/08/24 13:48:36;;;;;;;;;;;;;;;33.44;35.08;96500.25;4220279;28;5661;-69
2023/08/24 13:50:38;;;;;;;;;;;;;;;33.43;35.11;96498.66;4220112;28;5675;-70
2023/08/24 13:52:41;;;;;;;;;;;;;;;33.45;34.89;96497.16;4220058;28;5818;-69
2023/08/24 13:54:44;;;;;;;;;;;;;;;33.51;35.54;96494.94;4220498;28;5665;-70
2023/08/24 13:57:00;;;;;;;;;;;;;;;33.54;36.04;96494.25;4220348;28;5736;-71
2023/08/24 13:59:03;;;;;;;;;;;;;;;33.55;35.99;96480.22;4220475;28;5696;-69
2023/08/24 14:01:06;;;;;;;;;;;;;;;33.56;35.87;96476.31;4220252;28;5645;-71
2023/08/24 14:03:09;;;;;;;;;;;;;;;33.60;35.81;96479.16;4220253;28;5669;-70
2023/08/24 14:05:13;;;;;;;;;;;;;;;33.65;36.43;96478.13;4220160;28;5676;-70
2023/08/24 14:07:16;;;;;;;;;;;;;;;33.67;36.35;96470.34;4220381;28;5715;-70
2023/08/24 14:09:19;;;;;;;;;;;;;;;33.68;36.02;96472.72;4219801;28;5661;-70
2023/08/24 14:11:21;;;;;;;;;;;;;;;33.67;36.57;96475.81;4220168;28;5617;-70
2023/08/24 14:13:24;;;;;;;;;;;;;;;33.67;36.29;96473.06;4219690;28;5629;-70
2023/08/24 14:15:27;;;;;;;;;;;;;;;33.69;35.79;96468.03;4220186;28;5608;-69
2023/08/24 14:17:30;;;;;;;;;;;;;;;33.69;36.20;96473.53;4219941;28;5673;-70
2023/08/24 14:19:33;;;;;;;;;;;;;;;33.69;36.20;96462.56;4219165;28;5748;-69
2023/08/24 14:21:38;;;;;;;;;;;;;;;33.71;36.12;96473.97;4218347;28;5605;-68
2023/08/24 14:23:44;;;;;;;;;;;;;;;33.70;35.97;96469.63;4212915;28;5691;-69
2023/08/24 14:25:48;;;;;;;;;;;;;;;33.72;35.81;96475.56;4217607;28;5712;-70
2023/08/24 14:27:51;;;;;;;;;;;;;;;33.69;35.56;96468.84;4218564;28;5620;-70
2023/08/24 14:30:08;;;;;;;;;;;;;;;33.68;34.93;96467.25;4216687;28;5707;-70
2023/08/24 14:32:11;;;;;;;;;;;;;;;33.68;34.88;96463.72;4210606;28;5848;-71
2023/08/24 14:34:14;;;;;;;;;;;;;;;33.67;34.99;96462.91;4213349;28;5795;-70
2023/08/24 14:36:17;;;;;;;;;;;;;;;33.71;34.56;96461.06;4214944;28;6666;-70
2023/08/24 14:38:22;;;;;;;;;;;;;;;33.71;34.77;96461.06;4208520;28;5715;-70
2023/08/24 14:40:25;;;;;;;;;;;;;;;33.72;34.14;96464.59;4211389;28;5609;-70
2023/08/24 14:42:28;;;;;;;;;;;;;;;33.74;34.45;96460.34;4208460;28;5981;-70
2023/08/24 14:44:31;;;;;;;;;;;;;;;33.83;33.85;96462.94;4212102;28;5869;-70
2023/08/24 14:46:33;;;;;;;;;;;;;;;33.83;34.10;96462.94;4210200;28;5089;-71
2023/08/24 14:48:37;;;;;;;;;;;;;;;33.81;33.68;96460.53;4211966;28;6026;-70
2023/08/24 14:50:40;;;;;;;;;;;;;;;33.81;33.58;96466.03;4216165;28;5677;-70
2023/08/24 14:52:43;;;;;;;;;;;;;;;33.80;33.42;96458.94;4207926;28;5748;-69
2023/08/24 14:54:47;;;;;;;;;;;;;;;33.80;33.94;96458.16;4213495;28;5767;-70
2023/08/24 14:56:50;;;;;;;;;;;;;;;33.80;33.65;96456.22;4206984;28;6077;-69
2023/08/24 14:58:54;;;;;;;;;;;;;;;33.81;33.72;96454.25;4213940;28;5692;-69
2023/08/24 15:00:57;;;;;;;;;;;;;;;33.81;33.32;96455.06;4212181;28;5716;-70
2023/08/24 15:03:00;;;;;;;;;;;;;;;33.82;33.01;96455.84;4212610;28;5671;-69
2023/08/24 15:05:04;;;;;;;;;;;;;;;33.84;32.88;96464.53;4210288;28;5660;-70
2023/08/24 15:07:07;;;;;;;;;;;;;;;33.83;32.89;96457.44;4213632;28;6461;-70
2023/08/24 15:09:09;;;;;;;;;;;;;;;33.81;32.77;96459.75;4214613;28;5676;-70
2023/08/24 15:11:15;;;;;;;;;;;;;;;33.82;32.91;96462.13;4210131;28;5712;-70
2023/08/24 15:13:17;;;;;;;;;;;;;;;33.89;32.67;96469.00;4210858;28;5707;-69
2023/08/24 15:15:20;;;;;;;;;;;;;;;33.90;33.29;96473.31;4208198;28;6520;-69
2023/08/24 15:17:22;;;;;;;;;;;;;;;33.90;33.24;96482.34;4212851;28;5624;-70
2023/08/24 15:19:25;;;;;;;;;;;;;;;33.89;33.13;96483.50;4206588;28;6543;-69
2023/08/24 15:21:28;;;;;;;;;;;;;;;33.89;32.93;96488.97;4208230;28;5796;-70
2023/08/24 15:23:32;;;;;;;;;;;;;;;33.89;33.01;96493.66;4209313;28;5716;-70
2023/08/24 15:25:35;;;;;;;;;;;;;;;33.90;32.85;96487.03;4214203;28;6306;-70
2023/08/24 15:27:39;;;;;;;;;;;;;;;33.90;32.72;96484.28;4200473;28;5766;-70
2023/08/24 15:29:42;;;;;;;;;;;;;;;33.89;32.80;96488.97;4201166;28;5886;-70
2023/08/24 15:31:45;;;;;;;;;;;;;;;33.89;32.83;96497.22;4215595;28;5881;-70
2023/08/24 15:33:48;;;;;;;;;;;;;;;33.88;32.81;96492.09;4208595;28;5937;-70
2023/08/24 15:35:51;;;;;;;;;;;;;;;33.88;32.41;96492.88;4200334;28;5861;-70
2023/08/24 15:37:54;;;;;;;;;;;;;;;33.86;32.68;96490.50;4209678;28;8157;-69
2023/08/24 15:39:57;;;;;;;;;;;;;;;33.85;32.62;96488.84;4213122;28;5702;-70
2023/08/24 15:42:00;;;;;;;;;;;;;;;33.85;32.77;96493.53;4210209;28;5814;-70
2023/08/24 15:44:04;;;;;;;;;;;;;;;33.82;33.29;96494.25;4210912;28;5677;-70
2023/08/24 15:46:08;;;;;;;;;;;;;;;33.84;32.89;96481.75;4216307;28;5688;-70
2023/08/24 15:48:09;;;;;;;;;;;;;;;33.83;32.63;96482.13;4217046;28;6524;-69
2023/08/24 15:50:12;;;;;;;;;;;;;;;33.82;33.07;96475.84;4211572;28;5837;-70
2023/08/24 15:52:15;;;;;;;;;;;;;;;33.82;32.62;96477.78;4210284;28;5731;-69
2023/08/24 15:54:19;;;;;;;;;;;;;;;33.81;33.18;96476.19;4210132;28;5712;-70
2023/08/24 15:56:21;;;;;;;;;;;;;;;33.80;32.79;96471.88;4211337;28;5819;-69
2023/08/24 15:58:25;;;;;;;;;;;;;;;33.80;32.94;96483.63;4210317;28;5826;-69
2023/08/24 16:00:29;;;;;;;;;;;;;;;33.78;32.99;96479.66;4211632;28;5783;-69
2023/08/24 16:02:32;;;;;;;;;;;;;;;33.77;32.91;96480.81;4209820;28;5817;-69
2023/08/24 16:04:35;;;;;;;;;;;;;;;33.73;32.54;96479.88;4215129;28;5755;-66
2023/08/24 16:06:37;;;;;;;;;;;;;;;33.72;32.99;96478.28;4208153;28;5730;-66
2023/08/24 16:08:39;;;;;;;;;;;;;;;33.72;32.77;96481.03;4207508;28;5663;-66
2023/08/24 16:10:44;;;;;;;;;;;;;;;33.69;32.79;96479.00;4208336;28;5866;-67
2023/08/24 16:12:47;;;;;;;;;;;;;;;33.68;32.59;96482.91;4204003;28;5692;-67
2023/08/24 16:14:50;;;;;;;;;;;;;;;33.66;32.91;96488.72;4210819;28;5624;-67
2023/08/24 16:16:54;;;;;;;;;;;;;;;33.66;32.88;96487.94;4205745;28;5072;-68
2023/08/24 16:18:57;;;;;;;;;;;;;;;33.63;32.83;96483.13;4209082;28;5617;-70
2023/08/24 16:21:00;;;;;;;;;;;;;;;33.62;32.40;96484.28;4213671;28;6876;-70
2023/08/24 16:23:03;;;;;;;;;;;;;;;33.61;32.89;96488.16;4208659;28;5711;-70
2023/08/24 16:25:08;;;;;;;;;;;;;;;33.62;32.71;96487.03;4208869;28;5700;-69
2023/08/24 16:27:11;;;;;;;;;;;;;;;33.61;32.60;96493.66;4209850;28;5676;-70